Time;durP1;ratioP1;P1;durP2;ratioP2;P2;SDS_P1;SDS_P2;PMS_P1;PMS_P2;Temp;Humidity;BMP_temperature;BMP_pressure;BME280_temperature;BME280_humidity;BME280_pressure;Samples;Min_cycle;Max_cycle;Signal;HPM_P1;HPM_P2
2023/02/12 00:00:25;;;;;;;39.55;25.92;;;5.50;1.00;;;;;;7389734;19;20010;-75
2023/02/12 00:02:57;;;;;;;44.80;27.45;;;5.50;1.00;;;;;;7390369;19;20022;-75
2023/02/12 00:05:27;;;;;;;40.33;25.90;;;5.50;1.00;;;;;;7390056;19;20098;-75
2023/02/12 00:07:57;;;;;;;44.08;26.50;;;5.50;1.00;;;;;;7391173;19;20010;-75
2023/02/12 00:10:27;;;;;;;45.38;26.75;;;5.50;1.00;;;;;;7389043;19;20025;-75
2023/02/12 00:12:57;;;;;;;45.33;27.50;;;5.50;1.00;;;;;;7391321;19;20014;-75
2023/02/12 00:15:27;;;;;;;48.67;26.77;;;5.50;1.00;;;;;;7390031;19;20014;-75
2023/02/12 00:17:59;;;;;;;51.33;28.40;;;5.50;1.00;;;;;;7390999;19;20070;-75
2023/02/12 00:20:29;;;;;;;40.13;25.27;;;5.50;1.00;;;;;;7388806;19;20010;-74
2023/02/12 00:22:59;;;;;;;42.03;25.88;;;5.50;1.00;;;;;;7391355;19;20019;-75
2023/02/12 00:25:29;;;;;;;42.60;25.50;;;5.50;1.00;;;;;;7390894;19;20494;-75
2023/02/12 00:27:59;;;;;;;42.53;27.73;;;5.50;1.00;;;;;;7390734;19;20019;-76
2023/02/12 00:30:28;;;;;;;44.17;26.58;;;5.50;1.00;;;;;;7388061;19;20018;-74
2023/02/12 00:33:01;;;;;;;43.15;27.45;;;5.50;1.00;;;;;;7390553;19;20043;-74
2023/02/12 00:35:31;;;;;;;44.45;27.58;;;5.40;1.00;;;;;;7389475;19;20372;-75
2023/02/12 00:38:00;;;;;;;42.90;27.17;;;5.30;1.00;;;;;;7390386;19;20470;-73
2023/02/12 00:40:31;;;;;;;47.05;27.85;;;5.30;1.00;;;;;;7387796;19;20018;-74
2023/02/12 00:43:00;;;;;;;49.50;30.67;;;5.20;1.00;;;;;;7389909;19;20098;-73
2023/02/12 00:45:30;;;;;;;44.85;29.35;;;5.10;1.00;;;;;;7390454;19;20026;-76
2023/02/12 00:48:02;;;;;;;48.13;31.55;;;5.20;1.00;;;;;;7389916;19;20073;-74
2023/02/12 00:50:32;;;;;;;49.20;29.85;;;5.10;1.00;;;;;;7387934;19;20082;-74
2023/02/12 00:53:02;;;;;;;51.45;31.58;;;5.10;1.00;;;;;;7389725;19;20107;-74
2023/02/12 00:55:32;;;;;;;50.28;30.95;;;5.10;1.00;;;;;;7388641;19;20014;-74
2023/02/12 00:58:02;;;;;;;47.42;28.73;;;5.10;1.00;;;;;;7389544;19;20014;-74
2023/02/12 01:00:32;;;;;;;46.35;30.38;;;5.10;1.00;;;;;;7385642;19;20677;-74
2023/02/12 01:03:05;;;;;;;47.33;30.33;;;5.10;1.00;;;;;;7389747;19;20474;-75
2023/02/12 01:05:35;;;;;;;46.95;29.98;;;5.10;1.00;;;;;;7389580;19;20018;-74
2023/02/12 01:08:06;;;;;;;50.72;30.75;;;5.10;1.00;;;;;;7389146;19;20014;-74
2023/02/12 01:10:36;;;;;;;48.10;30.63;;;5.10;1.00;;;;;;7387516;19;20018;-74
2023/02/12 01:13:06;;;;;;;50.88;31.77;;;5.10;1.00;;;;;;7387326;19;20362;-74
2023/02/12 01:15:35;;;;;;;46.30;29.23;;;5.10;1.00;;;;;;7388602;19;20025;-75
2023/02/12 01:18:08;;;;;;;47.33;31.08;;;5.10;1.00;;;;;;7389397;19;20015;-74
2023/02/12 01:20:38;;;;;;;46.33;30.52;;;5.10;1.00;;;;;;7386772;19;20024;-75
2023/02/12 01:23:07;;;;;;;49.60;30.88;;;5.10;1.00;;;;;;7387764;19;20018;-75
2023/02/12 01:25:39;;;;;;;52.15;30.38;;;5.10;1.00;;;;;;7388988;19;20025;-74
2023/02/12 01:28:09;;;;;;;50.33;31.23;;;5.10;1.10;;;;;;7388907;19;20081;-74
2023/02/12 01:30:38;;;;;;;50.78;30.08;;;5.10;1.00;;;;;;7386781;19;20087;-75
2023/02/12 01:33:11;;;;;;;48.30;30.75;;;5.10;1.00;;;;;;7388798;19;20018;-75
2023/02/12 01:35:40;;;;;;;48.92;30.15;;;5.10;1.20;;;;;;7387878;19;20018;-75
2023/02/12 01:38:10;;;;;;;41.70;27.83;;;5.20;1.00;;;;;;7388813;19;20038;-75
2023/02/12 01:40:40;;;;;;;42.38;27.40;;;5.20;1.00;;;;;;7387022;19;20018;-75
2023/02/12 01:43:13;;;;;;;44.15;28.15;;;5.20;1.00;;;;;;7388638;19;20015;-74
2023/02/12 01:45:48;;;;;;;45.70;27.08;;;5.30;1.00;;;;;;7388961;19;20039;-74
2023/02/12 01:48:24;;;;;;;50.67;29.00;;;5.30;1.00;;;;;;7387941;19;20007;-75
2023/02/12 01:50:55;;;;;;;41.95;26.52;;;5.20;1.00;;;;;;7388439;19;20031;-74
2023/02/12 01:53:30;;;;;;;43.10;27.40;;;5.20;1.00;;;;;;7396215;19;20015;-74
2023/02/12 01:56:02;;;;;;;45.17;27.00;;;5.10;1.00;;;;;;7394546;19;20034;-75
2023/02/12 01:58:37;;;;;;;42.60;26.30;;;5.20;1.00;;;;;;7395192;19;20372;-74
2023/02/12 02:01:11;;;;;;;42.58;26.02;;;5.20;1.00;;;;;;7397135;19;20043;-75
2023/02/12 02:03:46;;;;;;;42.95;25.70;;;5.20;1.00;;;;;;7394299;19;20363;-74
2023/02/12 02:06:20;;;;;;;42.38;25.95;;;5.20;1.00;;;;;;7395442;19;20085;-75
2023/02/12 02:08:50;;;;;;;50.20;29.35;;;5.20;1.00;;;;;;7394256;19;20015;-74
2023/02/12 02:16:53;;;;;;;46.05;28.40;;;5.10;1.00;;;;;;7393213;19;20478;-74
2023/02/12 02:19:37;;;;;;;47.50;27.45;;;5.10;1.40;;;;;;7393902;19;20428;-75
2023/02/12 02:22:36;;;;;;;44.08;26.15;;;5.10;1.50;;;;;;7395165;19;20018;-75
2023/02/12 02:25:25;;;;;;;42.80;25.73;;;5.20;1.00;;;;;;7395332;19;20638;-75
2023/02/12 02:28:09;;;;;;;41.05;26.10;;;5.20;1.00;;;;;;7395140;19;20015;-75
2023/02/12 02:30:47;;;;;;;42.53;27.13;;;5.20;1.00;;;;;;7391864;19;20019;-75
2023/02/12 02:33:34;;;;;;;44.03;25.67;;;5.20;1.00;;;;;;7393316;19;20019;-74
2023/02/12 02:36:16;;;;;;;44.50;26.10;;;5.20;1.00;;;;;;7391912;19;20534;-75
2023/02/12 02:38:51;;;;;;;45.92;26.77;;;5.20;1.10;;;;;;7393513;19;20123;-75
2023/02/12 02:41:27;;;;;;;40.58;25.08;;;5.20;1.00;;;;;;7394610;19;20039;-75
2023/02/12 02:43:57;;;;;;;43.25;26.75;;;5.10;1.00;;;;;;7394064;19;20021;-75
2023/02/12 02:46:35;;;;;;;42.97;26.38;;;5.20;1.20;;;;;;7394467;19;20017;-75
2023/02/12 02:49:09;;;;;;;44.30;27.50;;;5.20;1.70;;;;;;7392669;19;20018;-75
2023/02/12 02:51:43;;;;;;;44.07;26.33;;;5.20;1.00;;;;;;7394589;19;20035;-75
2023/02/12 02:54:15;;;;;;;;;;;5.20;1.00;;;;;;7394544;19;20117;-75
2023/02/12 02:56:49;;;;;;;43.50;25.85;;;5.10;1.00;;;;;;7392780;19;20236;-75
2023/02/12 02:59:23;;;;;;;44.10;26.30;;;5.20;1.00;;;;;;7392674;19;20018;-75
2023/02/12 03:02:01;;;;;;;38.72;24.45;;;5.20;1.00;;;;;;7395546;19;20006;-75
2023/02/12 03:04:34;;;;;;;44.45;26.02;;;5.20;1.00;;;;;;7390772;19;20018;-74
2023/02/12 03:07:08;;;;;;;42.70;27.33;;;5.10;1.00;;;;;;7393915;19;20094;-75
2023/02/12 03:09:42;;;;;;;44.97;26.30;;;5.10;1.00;;;;;;7392098;19;20022;-74
2023/02/12 03:12:16;;;;;;;46.30;28.13;;;5.10;1.10;;;;;;7393909;19;20014;-74
2023/02/12 03:14:50;;;;;;;40.92;26.30;;;5.10;1.40;;;;;;7393440;19;20018;-74
2023/02/12 03:17:23;;;;;;;;;;;5.10;1.10;;;;;;7390915;19;20019;-74
2023/02/12 03:19:58;;;;;;;42.58;26.17;;;5.10;1.10;;;;;;7389376;19;19915;-75
2023/02/12 03:22:32;;;;;;;44.03;25.58;;;5.10;1.10;;;;;;7393558;19;20338;-75
2023/02/12 03:25:08;;;;;;;45.00;26.30;;;5.20;1.00;;;;;;7392798;19;20014;-73
2023/02/12 03:27:41;;;;;;;42.05;27.00;;;5.10;1.00;;;;;;7392685;19;20025;-74
2023/02/12 03:30:12;;;;;;;42.33;26.85;;;5.10;1.00;;;;;;7390639;19;20018;-74
2023/02/12 03:32:51;;;;;;;37.75;24.52;;;5.10;1.10;;;;;;7392866;19;20015;-74
2023/02/12 03:35:25;;;;;;;48.83;28.20;;;5.10;1.30;;;;;;7392500;19;20081;-74
2023/02/12 03:37:59;;;;;;;45.95;29.05;;;5.20;1.00;;;;;;7389011;19;20015;-74
2023/02/12 03:40:34;;;;;;;46.22;27.75;;;5.10;1.00;;;;;;7389883;19;20086;-74
2023/02/12 03:43:10;;;;;;;49.22;29.30;;;5.10;1.20;;;;;;7392813;19;20011;-74
2023/02/12 03:45:46;;;;;;;46.40;28.70;;;4.90;1.50;;;;;;7392116;19;20015;-74
2023/02/12 03:48:24;;;;;;;50.72;30.23;;;4.80;2.50;;;;;;7392135;19;20014;-74
2023/02/12 03:50:58;;;;;;;46.20;29.13;;;4.70;3.80;;;;;;7392377;19;20384;-75
2023/02/12 03:53:30;;;;;;;46.45;28.63;;;4.70;4.20;;;;;;7392436;19;20015;-75
2023/02/12 03:56:04;;;;;;;44.38;29.23;;;4.60;5.10;;;;;;7391763;19;20038;-74
2023/02/12 03:58:36;;;;;;;47.97;30.08;;;4.60;5.20;;;;;;7390347;19;20021;-75
2023/02/12 04:01:07;;;;;;;48.35;29.35;;;4.60;5.60;;;;;;7393343;19;20014;-75
2023/02/12 04:03:40;;;;;;;45.65;28.83;;;4.60;6.30;;;;;;7391793;19;20482;-74
2023/02/12 04:06:21;;;;;;;44.55;28.42;;;4.60;6.60;;;;;;7391716;19;20014;-74
2023/02/12 04:08:51;;;;;;;46.35;29.90;;;4.60;6.60;;;;;;7390562;19;20029;-74
2023/02/12 04:11:30;;;;;;;47.20;30.45;;;4.60;6.60;;;;;;7391262;19;20015;-75
2023/02/12 04:14:16;;;;;;;47.35;30.38;;;4.60;6.60;;;;;;7390827;19;20014;-75
2023/02/12 04:16:50;;;;;;;49.67;29.58;;;4.60;6.40;;;;;;7390465;19;20091;-75
2023/02/12 04:19:28;;;;;;;;;;;4.60;6.40;;;;;;7390556;19;20367;-74
2023/02/12 04:22:13;;;;;;;46.03;28.13;;;4.60;6.60;;;;;;7390987;19;19934;-75
2023/02/12 04:24:51;;;;;;;41.17;27.33;;;4.60;6.70;;;;;;7391035;19;20485;-74
2023/02/12 04:27:26;;;;;;;46.80;28.70;;;4.60;7.00;;;;;;7390753;19;20019;-74
2023/02/12 04:30:01;;;;;;;46.33;27.48;;;4.60;7.00;;;;;;7387818;19;20022;-74
2023/02/12 04:32:38;;;;;;;49.70;29.30;;;4.60;7.30;;;;;;7390860;19;20014;-73
2023/02/12 04:35:17;;;;;;;49.05;29.45;;;4.60;7.40;;;;;;7390553;19;20489;-74
2023/02/12 04:37:51;;;;;;;43.78;29.42;;;4.60;7.80;;;;;;7389711;19;20091;-73
2023/02/12 04:40:23;;;;;;;44.08;27.23;;;4.50;8.10;;;;;;7388363;19;20493;-73
2023/02/12 04:42:55;;;;;;;44.72;27.33;;;4.50;8.50;;;;;;7390475;19;20027;-74
2023/02/12 04:45:28;;;;;;;44.50;28.73;;;4.60;8.70;;;;;;7390313;19;20486;-74
2023/02/12 04:47:58;;;;;;;41.57;28.73;;;4.60;8.70;;;;;;7390456;19;20480;-74
2023/02/12 04:50:39;;;;;;;48.03;28.85;;;4.60;8.30;;;;;;7388244;19;20021;-73
2023/02/12 04:53:10;;;;;;;45.72;28.90;;;4.60;8.00;;;;;;7389942;19;20014;-74
2023/02/12 04:55:40;;;;;;;46.92;27.77;;;4.70;7.40;;;;;;7390174;19;20127;-74
2023/02/12 04:58:10;;;;;;;50.20;29.50;;;4.80;6.00;;;;;;7389054;19;20022;-74
2023/02/12 05:00:40;;;;;;;47.42;28.05;;;4.80;5.20;;;;;;7388736;19;20050;-74
2023/02/12 05:03:10;;;;;;;47.65;27.08;;;4.80;5.20;;;;;;7388602;19;20021;-74
2023/02/12 05:05:42;;;;;;;45.92;27.02;;;4.80;5.20;;;;;;7389547;19;20014;-74
2023/02/12 05:08:12;;;;;;;41.78;27.52;;;4.80;5.20;;;;;;7389669;19;20074;-74
2023/02/12 05:10:42;;;;;;;47.15;28.00;;;4.80;5.20;;;;;;7387607;19;20018;-74
2023/02/12 05:13:12;;;;;;;42.47;27.13;;;4.70;5.10;;;;;;7388113;19;20478;-74
2023/02/12 05:15:42;;;;;;;46.75;29.02;;;4.70;5.10;;;;;;7389426;19;20015;-74
2023/02/12 05:18:11;;;;;;;45.40;28.88;;;4.70;5.10;;;;;;7388433;19;20022;-74
2023/02/12 05:20:44;;;;;;;43.75;28.48;;;4.70;5.10;;;;;;7387275;19;20025;-73
2023/02/12 05:23:14;;;;;;;45.40;28.70;;;4.70;5.20;;;;;;7389401;19;20078;-74
2023/02/12 05:25:43;;;;;;;45.70;27.65;;;4.70;5.20;;;;;;7387807;19;20022;-73
2023/02/12 05:28:13;;;;;;;47.70;29.23;;;4.70;5.10;;;;;;7388285;19;20014;-73
2023/02/12 05:30:43;;;;;;;45.92;28.17;;;4.60;5.00;;;;;;7386812;19;20031;-73
2023/02/12 05:33:13;;;;;;;41.80;26.90;;;4.70;5.20;;;;;;7389388;19;20015;-74
2023/02/12 05:35:45;;;;;;;48.08;27.00;;;4.70;5.10;;;;;;7389041;19;20022;-73
2023/02/12 05:38:15;;;;;;;44.53;28.23;;;4.60;5.10;;;;;;7388192;19;20022;-73
2023/02/12 05:40:45;;;;;;;48.75;29.20;;;4.70;5.10;;;;;;7387240;19;20367;-74
2023/02/12 05:43:15;;;;;;;46.00;28.15;;;4.60;5.10;;;;;;7388811;19;20018;-74
2023/02/12 05:45:45;;;;;;;47.00;27.70;;;4.70;5.10;;;;;;7389115;19;20018;-74
2023/02/12 05:48:15;;;;;;;47.90;28.50;;;4.60;5.10;;;;;;7388407;19;20018;-73
2023/02/12 05:50:47;;;;;;;42.42;28.65;;;4.60;5.10;;;;;;7387227;19;20018;-74
2023/02/12 05:53:18;;;;;;;46.30;28.40;;;4.60;5.10;;;;;;7387930;19;20018;-74
2023/02/12 05:55:48;;;;;;;46.33;28.63;;;4.60;5.10;;;;;;7388309;19;20025;-74
2023/02/12 05:58:17;;;;;;;46.00;28.08;;;4.60;5.40;;;;;;7386753;19;20017;-74
2023/02/12 06:00:47;;;;;;;45.95;28.63;;;4.60;5.30;;;;;;7386990;19;20014;-74
2023/02/12 06:03:17;;;;;;;48.70;28.88;;;4.50;5.30;;;;;;7387974;19;20025;-74
2023/02/12 06:05:54;;;;;;;45.97;28.83;;;4.50;5.40;;;;;;7388045;19;20014;-74
2023/02/12 06:08:25;;;;;;;45.72;27.35;;;4.50;5.60;;;;;;7387323;19;20026;-74
2023/02/12 06:10:54;;;;;;;44.38;27.42;;;4.50;5.80;;;;;;7388295;19;20626;-74
2023/02/12 06:13:24;;;;;;;46.83;28.05;;;4.50;5.90;;;;;;7387607;19;20483;-74
2023/02/12 06:15:54;;;;;;;46.95;28.00;;;4.60;5.10;;;;;;7388037;19;20761;-74
2023/02/12 06:18:25;;;;;;;46.80;29.67;;;4.60;5.10;;;;;;7385878;19;20025;-73
2023/02/12 06:20:57;;;;;;;48.72;29.35;;;4.70;5.10;;;;;;7387865;19;20018;-74
2023/02/12 06:23:27;;;;;;;41.08;26.45;;;4.70;5.10;;;;;;7387892;19;20015;-74
2023/02/12 06:26:00;;;;;;;46.92;27.38;;;4.70;4.90;;;;;;7385797;19;20018;-74
2023/02/12 06:28:30;;;;;;;44.50;27.50;;;4.70;4.50;;;;;;7387039;19;20010;-74
2023/02/12 06:31:00;;;;;;;47.05;27.33;;;4.70;4.10;;;;;;7387168;19;20070;-74
2023/02/12 06:33:30;;;;;;;41.05;28.23;;;4.70;4.00;;;;;;7387246;19;20018;-74
2023/02/12 06:36:05;;;;;;;48.25;29.10;;;4.70;3.80;;;;;;7387438;19;20077;-74
2023/02/12 06:38:36;;;;;;;47.13;27.02;;;4.70;3.80;;;;;;7390239;19;20025;-74
2023/02/12 06:41:06;;;;;;;45.17;26.98;;;4.70;3.80;;;;;;7395145;19;20089;-74
2023/02/12 06:43:36;;;;;;;42.92;27.27;;;4.70;3.80;;;;;;7394421;19;20021;-74
2023/02/12 06:46:07;;;;;;;45.15;27.80;;;4.70;4.30;;;;;;7394740;19;20078;-74
2023/02/12 06:48:37;;;;;;;41.63;26.73;;;4.70;4.00;;;;;;7393301;19;20042;-74
2023/02/12 06:51:12;;;;;;;43.25;27.08;;;4.70;4.40;;;;;;7394309;19;20018;-74
2023/02/12 06:53:42;;;;;;;43.13;26.17;;;4.60;4.90;;;;;;7394172;19;20018;-73
2023/02/12 06:56:13;;;;;;;46.65;29.13;;;4.60;5.10;;;;;;7393976;19;20018;-73
2023/02/12 06:58:45;;;;;;;44.20;27.67;;;4.70;5.10;;;;;;7392211;19;20015;-74
2023/02/12 07:01:17;;;;;;;46.83;27.95;;;4.70;4.80;;;;;;7395550;19;20014;-73
2023/02/12 07:03:51;;;;;;;43.63;27.38;;;4.70;4.10;;;;;;7393710;19;20025;-73
2023/02/12 07:06:24;;;;;;;45.35;28.58;;;4.70;3.90;;;;;;7393676;19;20048;-73
2023/02/12 07:08:55;;;;;;;43.85;27.88;;;4.80;3.50;;;;;;7392473;19;20486;-74
2023/02/12 07:11:26;;;;;;;45.67;28.15;;;4.80;3.20;;;;;;7393741;19;20030;-73
2023/02/12 07:13:56;;;;;;;51.95;29.55;;;4.80;2.90;;;;;;7391568;19;20413;-73
2023/02/12 07:16:26;;;;;;;43.03;28.00;;;4.90;2.60;;;;;;7393493;19;20010;-74
2023/02/12 07:18:56;;;;;;;44.53;28.80;;;4.90;1.80;;;;;;7391233;19;20010;-74
2023/02/12 07:21:28;;;;;;;44.00;28.92;;;5.00;1.60;;;;;;7392607;19;20010;-74
2023/02/12 07:23:58;;;;;;;45.17;28.73;;;5.10;1.10;;;;;;7393069;19;20078;-74
2023/02/12 07:26:28;;;;;;;47.00;28.73;;;5.10;1.00;;;;;;7393260;19;20582;-74
2023/02/12 07:28:59;;;;;;;44.13;27.95;;;5.10;1.00;;;;;;7391640;19;20021;-75
2023/02/12 07:31:29;;;;;;;48.88;30.85;;;5.10;1.00;;;;;;7391067;19;20359;-74
2023/02/12 07:34:00;;;;;;;48.95;29.63;;;5.10;1.00;;;;;;7392941;19;20654;-74
2023/02/12 07:36:34;;;;;;;52.03;30.45;;;5.10;1.00;;;;;;7393207;19;20014;-74
2023/02/12 07:39:04;;;;;;;45.53;29.08;;;5.10;1.00;;;;;;7390994;19;20014;-73
2023/02/12 07:41:36;;;;;;;53.40;29.25;;;5.20;1.00;;;;;;7392764;19;20006;-74
2023/02/12 07:44:09;;;;;;;50.85;29.52;;;5.20;1.00;;;;;;7392399;19;20014;-74
2023/02/12 07:46:41;;;;;;;44.88;27.70;;;5.20;1.00;;;;;;7392258;19;20022;-75
2023/02/12 07:49:15;;;;;;;46.30;28.35;;;5.20;1.00;;;;;;7388816;19;20022;-75
2023/02/12 07:51:47;;;;;;;45.55;28.33;;;5.20;1.00;;;;;;7392343;19;20017;-75
2023/02/12 07:54:17;;;;;;;46.58;29.35;;;5.30;1.00;;;;;;7391988;19;20014;-73
2023/02/12 07:56:48;;;;;;;46.30;28.92;;;5.30;1.00;;;;;;7391784;19;20522;-73
2023/02/12 07:59:20;;;;;;;45.40;28.15;;;5.30;1.00;;;;;;7388745;19;20018;-73
2023/02/12 08:01:52;;;;;;;46.55;30.08;;;5.30;1.00;;;;;;7394852;19;20074;-74
2023/02/12 08:04:23;;;;;;;49.38;29.17;;;5.40;1.00;;;;;;7391557;19;20026;-74
2023/02/12 08:06:57;;;;;;;44.88;28.98;;;5.40;1.00;;;;;;7390304;19;20014;-74
2023/02/12 08:09:29;;;;;;;53.50;32.88;;;5.50;1.00;;;;;;7389994;19;20010;-74
2023/02/12 08:11:59;;;;;;;53.30;30.52;;;5.60;1.00;;;;;;7391293;19;20023;-73
2023/02/12 08:14:29;;;;;;;47.17;30.10;;;5.60;1.00;;;;;;7390876;19;20027;-73
2023/02/12 08:16:59;;;;;;;47.75;29.15;;;5.70;1.00;;;;;;7389933;19;20014;-76
2023/02/12 08:19:29;;;;;;;52.13;30.38;;;5.70;1.00;;;;;;7387697;19;20006;-74
2023/02/12 08:22:02;;;;;;;45.33;29.00;;;5.80;1.00;;;;;;7391377;19;20015;-74
2023/02/12 08:24:32;;;;;;;50.35;30.95;;;5.80;1.00;;;;;;7391541;19;20046;-75
2023/02/12 08:27:02;;;;;;;50.30;31.42;;;5.90;1.00;;;;;;7389525;19;20029;-74
2023/02/12 08:29:32;;;;;;;53.85;32.33;;;5.90;1.00;;;;;;7387426;19;20014;-75
2023/02/12 08:32:05;;;;;;;53.80;32.50;;;6.00;1.00;;;;;;7389597;19;20013;-74
2023/02/12 08:34:36;;;;;;;55.30;33.25;;;6.00;1.00;;;;;;7390397;19;20022;-74
2023/02/12 08:37:08;;;;;;;55.15;32.30;;;6.00;1.00;;;;;;7390706;19;20039;-73
2023/02/12 08:39:38;;;;;;;50.60;31.40;;;5.90;1.00;;;;;;7388416;19;20014;-73
2023/02/12 08:42:08;;;;;;;60.67;34.00;;;5.70;1.00;;;;;;7388316;19;20018;-74
2023/02/12 08:44:39;;;;;;;53.38;31.80;;;5.70;1.00;;;;;;7390651;19;20018;-73
2023/02/12 08:47:09;;;;;;;54.35;32.45;;;5.80;1.00;;;;;;7390116;19;20482;-74
2023/02/12 08:49:39;;;;;;;51.28;32.22;;;5.80;1.00;;;;;;7388175;19;20019;-73
2023/02/12 08:52:11;;;;;;;55.60;32.72;;;5.90;1.00;;;;;;7389856;19;20039;-73
2023/02/12 08:54:41;;;;;;;50.72;31.13;;;6.00;1.00;;;;;;7389533;19;20037;-74
2023/02/12 08:57:11;;;;;;;50.15;31.20;;;6.00;1.00;;;;;;7390053;19;20023;-74
2023/02/12 08:59:41;;;;;;;54.17;32.40;;;6.00;1.00;;;;;;7387964;19;20015;-74
2023/02/12 09:02:12;;;;;;;60.63;36.13;;;5.90;1.00;;;;;;7393071;19;20026;-74
2023/02/12 09:04:42;;;;;;;53.53;33.22;;;6.00;1.00;;;;;;7389406;19;20024;-75
2023/02/12 09:07:14;;;;;;;51.25;32.30;;;6.10;1.00;;;;;;7389394;19;20015;-74
2023/02/12 09:09:44;;;;;;;53.55;32.67;;;6.00;1.00;;;;;;7388486;19;20039;-73
2023/02/12 09:12:13;;;;;;;50.30;31.02;;;6.00;1.00;;;;;;7389509;19;20018;-75
2023/02/12 09:14:43;;;;;;;57.20;34.47;;;5.90;1.00;;;;;;7389153;19;20471;-74
2023/02/12 09:17:13;;;;;;;51.33;30.40;;;6.00;1.00;;;;;;7389087;19;20478;-74
2023/02/12 09:19:43;;;;;;;54.17;32.38;;;6.10;1.00;;;;;;7387000;19;20014;-74
2023/02/12 09:22:16;;;;;;;58.35;31.73;;;6.20;1.00;;;;;;7388855;19;20046;-75
2023/02/12 09:24:46;;;;;;;55.67;34.10;;;6.30;1.00;;;;;;7388748;19;20042;-74
2023/02/12 09:27:15;;;;;;;56.55;32.22;;;6.30;1.00;;;;;;7389241;19;20014;-74
2023/02/12 09:29:45;;;;;;;52.75;32.13;;;6.30;1.00;;;;;;7385722;19;20038;-74
2023/02/12 09:32:15;;;;;;;55.92;32.42;;;6.30;1.00;;;;;;7388730;19;20018;-75
2023/02/12 09:34:45;;;;;;;52.85;32.47;;;6.50;1.00;;;;;;7388466;19;20029;-73
2023/02/12 09:37:17;;;;;;;52.67;31.83;;;6.60;1.00;;;;;;7388483;19;20010;-75
2023/02/12 09:39:47;;;;;;;51.50;31.95;;;6.50;1.00;;;;;;7386287;19;20040;-75
2023/02/12 09:42:38;;;;;;;49.33;30.73;;;6.70;1.00;;;;;;7388483;19;20740;-73
2023/02/12 09:45:15;;;;;;;52.25;32.92;;;6.80;1.00;;;;;;7388181;19;20492;-74
2023/02/12 09:47:52;;;;;;;51.03;31.52;;;7.00;1.00;;;;;;7388559;19;20018;-74
2023/02/12 09:50:39;;;;;;;57.67;34.13;;;7.10;1.00;;;;;;7386178;19;20436;-74
2023/02/12 09:53:16;;;;;;;56.83;34.20;;;7.10;1.00;;;;;;7388105;19;20018;-75
2023/02/12 09:55:46;;;;;;;52.47;33.20;;;7.00;1.00;;;;;;7387632;19;20074;-75
2023/02/12 09:58:19;;;;;;;65.15;38.25;;;7.10;1.00;;;;;;7387969;19;20496;-75
2023/02/12 10:00:49;;;;;;;56.97;35.63;;;7.20;1.00;;;;;;7386782;19;20039;-75
2023/02/12 10:03:19;;;;;;;58.80;33.53;;;7.20;1.00;;;;;;7387833;19;20578;-75
2023/02/12 10:05:53;;;;;;;52.72;31.42;;;7.30;1.00;;;;;;7387624;19;20085;-76
2023/02/12 10:08:40;;;;;;;50.88;31.42;;;7.20;1.00;;;;;;7384250;19;20031;-74
2023/02/12 10:11:30;;;;;;;53.15;32.45;;;7.20;1.00;;;;;;7388353;19;20017;-76
2023/02/12 10:14:16;;;;;;;49.65;27.92;;;7.40;1.00;;;;;;7392009;19;20042;-74
2023/02/12 10:16:53;;;;;;;52.90;30.52;;;7.30;1.00;;;;;;7395880;19;20007;-74
2023/02/12 10:19:41;;;;;;;49.17;29.63;;;7.50;1.00;;;;;;7393236;19;20014;-74
2023/02/12 10:22:20;;;;;;;48.30;28.63;;;7.60;1.00;;;;;;7395168;19;20017;-74
2023/02/12 10:25:03;;;;;;;45.30;28.02;;;7.70;1.00;;;;;;7394074;19;20014;-75
2023/02/12 10:27:41;;;;;;;46.50;26.90;;;7.70;1.00;;;;;;7394794;19;20461;-75
2023/02/12 10:30:21;;;;;;;51.28;29.08;;;7.80;1.00;;;;;;7391340;19;20090;-74
2023/02/12 10:32:56;;;;;;;37.78;24.20;;;7.70;1.00;;;;;;7394789;19;20048;-74
2023/02/12 10:35:27;;;;;;;39.75;24.48;;;7.70;1.00;;;;;;7394553;19;20010;-74
2023/02/12 10:38:03;;;;;;;38.55;24.25;;;7.80;1.00;;;;;;7394809;19;20031;-74
2023/02/12 10:40:38;;;;;;;37.58;22.70;;;7.80;1.00;;;;;;7391653;19;20010;-74
2023/02/12 10:43:07;;;;;;;41.85;26.13;;;7.70;1.00;;;;;;7392789;19;20035;-74
2023/02/12 10:45:41;;;;;;;32.58;17.63;;;7.80;1.00;;;;;;7393838;19;20011;-74
2023/02/12 10:48:15;;;;;;;28.15;17.50;;;7.90;1.00;;;;;;7394390;19;20021;-74
2023/02/12 10:51:02;;;;;;;19.80;11.55;;;7.90;1.00;;;;;;7391570;19;20474;-74
2023/02/12 10:53:35;;;;;;;19.73;12.40;;;8.00;1.00;;;;;;7393719;19;20037;-74
2023/02/12 10:56:17;;;;;;;15.40;9.07;;;8.20;1.00;;;;;;7393551;19;20451;-74
2023/02/12 10:58:58;;;;;;;16.17;8.95;;;8.20;1.00;;;;;;7392511;19;20015;-74
2023/02/12 11:01:30;;;;;;;12.95;8.52;;;8.10;1.00;;;;;;7393495;19;19999;-74
2023/02/12 11:04:20;;;;;;;15.07;9.27;;;8.00;1.00;;;;;;7393568;19;20106;-75
2023/02/12 11:07:00;;;;;;;21.50;10.90;;;8.00;1.00;;;;;;7393274;19;20454;-75
2023/02/12 11:09:33;;;;;;;20.02;12.02;;;8.10;1.00;;;;;;7390145;19;20420;-74
2023/02/12 11:12:16;;;;;;;21.95;12.52;;;8.00;1.00;;;;;;7393308;19;20010;-74
2023/02/12 11:14:51;;;;;;;19.33;10.93;;;8.00;1.00;;;;;;7392829;19;20019;-74
2023/02/12 11:17:28;;;;;;;22.83;13.57;;;8.00;1.00;;;;;;7393654;19;20014;-75
2023/02/12 11:20:08;;;;;;;22.10;12.45;;;8.00;1.00;;;;;;7390338;19;20014;-75
2023/02/12 11:22:38;;;;;;;16.85;10.45;;;8.00;1.00;;;;;;7390691;19;20642;-75
2023/02/12 11:25:17;;;;;;;24.33;11.63;;;8.20;1.00;;;;;;7390201;19;20025;-76
2023/02/12 11:28:05;;;;;;;16.05;10.00;;;8.30;1.00;;;;;;7392989;19;20014;-75
2023/02/12 11:30:35;;;;;;;14.82;9.00;;;8.40;1.00;;;;;;7389612;19;20038;-74
2023/02/12 11:33:18;;;;;;;18.85;9.48;;;8.50;1.00;;;;;;7392911;19;20352;-75
2023/02/12 11:35:53;;;;;;;17.02;9.55;;;8.50;1.00;;;;;;7392397;19;20518;-73
2023/02/12 11:38:27;;;;;;;19.85;11.02;;;8.50;1.00;;;;;;7391825;19;20018;-75
2023/02/12 11:41:09;;;;;;;;;;;8.60;1.00;;;;;;7392658;19;20010;-73
2023/02/12 11:43:41;;;;;;;13.95;7.60;;;8.60;1.00;;;;;;7392554;19;20271;-75
2023/02/12 11:46:11;;;;;;;21.20;8.18;;;8.40;1.00;;;;;;7391827;19;20082;-74
2023/02/12 11:48:43;;;;;;;16.20;9.43;;;8.50;1.00;;;;;;7391395;19;20018;-74
2023/02/12 11:51:21;;;;;;;12.10;7.90;;;8.60;1.00;;;;;;7392202;19;20018;-75
2023/02/12 11:53:54;;;;;;;13.88;7.70;;;8.70;1.00;;;;;;7390740;19;20011;-75
2023/02/12 11:56:24;;;;;;;9.98;6.07;;;8.60;1.00;;;;;;7391807;19;20014;-75
2023/02/12 11:59:14;;;;;;;7.88;5.47;;;8.50;1.00;;;;;;7390855;19;20555;-75
2023/02/12 12:01:44;;;;;;;10.75;6.32;;;8.60;1.00;;;;;;7391626;19;20021;-74
2023/02/12 12:04:18;;;;;;;11.80;6.57;;;8.70;1.00;;;;;;7391636;19;20014;-76
2023/02/12 12:06:50;;;;;;;11.00;5.93;;;8.80;1.00;;;;;;7391284;19;20021;-75
2023/02/12 12:09:28;;;;;;;13.40;6.28;;;9.00;1.00;;;;;;7388106;19;20022;-75
2023/02/12 12:12:06;;;;;;;6.57;4.20;;;9.20;1.00;;;;;;7390975;19;20560;-74
2023/02/12 12:20:24;;;;;;;7.18;4.25;;;8.90;1.00;;;;;;7388847;19;20035;-76
2023/02/12 12:22:59;;;;;;;6.90;4.50;;;8.90;1.00;;;;;;7389673;19;20090;-74
2023/02/12 12:25:32;;;;;;;5.85;3.22;;;9.00;1.00;;;;;;7390947;19;20052;-75
2023/02/12 12:28:12;;;;;;;4.55;3.20;;;9.00;1.00;;;;;;7391131;19;20038;-75
2023/02/12 12:31:03;;;;;;;10.48;5.72;;;9.10;1.00;;;;;;7388136;19;20018;-75
2023/02/12 12:33:42;;;;;;;9.07;5.53;;;9.20;1.00;;;;;;7390439;19;20354;-75
2023/02/12 12:36:47;;;;;;;9.40;3.20;;;9.20;1.00;;;;;;7388305;19;20034;-75
2023/02/12 12:39:29;;;;;;;5.72;4.22;;;9.10;1.00;;;;;;7388976;19;20357;-74
2023/02/12 12:42:21;;;;;;;8.32;3.78;;;9.10;1.00;;;;;;7388997;19;20505;-75
2023/02/12 12:45:07;;;;;;;7.95;5.25;;;9.20;1.00;;;;;;7390446;19;20018;-76
2023/02/12 12:47:50;;;;;;;8.70;6.35;;;9.20;1.00;;;;;;7389396;19;20092;-75
2023/02/12 12:50:43;;;;;;;5.07;3.60;;;9.20;1.00;;;;;;7388124;19;20580;-76
2023/02/12 12:53:22;;;;;;;8.45;6.07;;;9.20;1.00;;;;;;7390543;19;20020;-75
2023/02/12 12:56:04;;;;;;;6.43;3.90;;;9.30;1.00;;;;;;7389900;19;20018;-74
2023/02/12 12:58:51;;;;;;;8.77;4.18;;;9.20;1.00;;;;;;7389242;19;20007;-74
2023/02/12 13:01:43;;;;;;;6.07;4.15;;;9.50;1.00;;;;;;7389921;19;20015;-74
2023/02/12 13:04:39;;;;;;;6.43;4.57;;;9.90;1.00;;;;;;7389520;19;20025;-75
2023/02/12 13:07:21;;;;;;;6.10;4.13;;;9.80;1.00;;;;;;7389123;19;20015;-76
2023/02/12 13:10:07;;;;;;;6.82;4.45;;;9.60;1.00;;;;;;7388222;19;20359;-76
2023/02/12 13:13:01;;;;;;;9.52;5.18;;;9.30;1.00;;;;;;7389298;19;20114;-76
2023/02/12 13:15:39;;;;;;;7.03;5.00;;;9.30;1.00;;;;;;7389378;19;20094;-75
2023/02/12 13:18:21;;;;;;;6.63;4.57;;;9.30;1.00;;;;;;7389584;19;20046;-75
2023/02/12 13:21:00;;;;;;;7.70;5.28;;;9.20;1.00;;;;;;7388999;19;20019;-75
2023/02/12 13:23:40;;;;;;;9.88;4.82;;;9.30;1.00;;;;;;7387366;19;20025;-75
2023/02/12 13:26:17;;;;;;;6.45;4.32;;;9.50;1.00;;;;;;7388914;19;20011;-75
2023/02/12 13:28:52;;;;;;;5.95;4.53;;;9.70;1.00;;;;;;7387956;19;20014;-75
2023/02/12 13:31:24;;;;;;;7.30;5.25;;;9.40;1.00;;;;;;7388422;19;20010;-74
2023/02/12 13:34:06;;;;;;;8.63;5.13;;;9.40;1.00;;;;;;7388255;19;20014;-75
2023/02/12 13:36:40;;;;;;;10.07;5.40;;;9.40;1.00;;;;;;7389029;19;20025;-75